TAF Text Data
IDs:
Format:
Raw Decoded Include METAR

Data at: 0243 UTC 29 Nov 2020

KHUL 282320Z 2900/2924 VRB03KT P6SM VCSH OVC030
  FM290600 VRB03KT P6SM SCT025 BKN035
  FM291200 VRB03KT P6SM BKN040